Time;durP1;ratioP1;P1;durP2;ratioP2;P2;SDS_P1;SDS_P2;PMS_P1;PMS_P2;Temp;Humidity;BMP_temperature;BMP_pressure;BME280_temperature;BME280_humidity;BME280_pressure;Samples;Min_cycle;Max_cycle;Signal;HPM_P1;HPM_P2
2023/02/20 10:24:23;;;;;;;18.50;9.20;;;17.50;54.30;;;;;;4735997;30;20524;-80
2023/02/20 10:27:13;;;;;;;19.17;9.17;;;15.40;59.30;;;;;;4773450;29;20462;-86
2023/02/20 10:29:42;;;;;;;11.83;6.60;;;15.80;61.80;;;;;;4847387;29;20460;-84
2023/02/20 10:32:18;;;;;;;14.07;7.23;;;16.40;60.00;;;;;;4845024;29;20521;-83
2023/02/20 10:34:51;;;;;;;14.10;7.10;;;16.80;59.00;;;;;;4845876;29;20468;-82
2023/02/20 10:37:33;;;;;;;14.60;6.97;;;17.00;57.90;;;;;;4844165;29;20480;-86
2023/02/20 10:40:18;;;;;;;16.47;7.30;;;17.20;57.20;;;;;;4846772;29;20534;-82
2023/02/20 10:46:11;;;;;;;10.70;6.17;;;17.40;56.40;;;;;;4845925;29;20464;-81
2023/02/20 10:48:41;;;;;;;10.93;6.10;;;17.50;56.10;;;;;;4850255;29;20478;-83
2023/02/20 10:51:11;;;;;;;13.17;5.30;;;17.60;55.90;;;;;;4853091;29;20459;-83
2023/02/20 10:54:00;;;;;;;11.00;6.03;;;17.70;55.70;;;;;;4849086;29;20492;-84
2023/02/20 10:57:05;;;;;;;10.30;5.23;;;17.70;55.50;;;;;;4848340;29;20555;-83
2023/02/20 11:24:49;;;;;;;6.30;4.10;;;17.90;55.00;;;;;;4756837;29;20514;-83
2023/02/20 11:27:18;;;;;;;7.77;3.77;;;17.90;55.10;;;;;;4789308;29;20456;-82
2023/02/20 11:29:48;;;;;;;7.23;4.30;;;17.90;55.70;;;;;;4791938;29;21005;-81
2023/02/20 11:32:29;;;;;;;9.43;4.07;;;17.90;55.10;;;;;;4787430;29;20551;-83
2023/02/20 11:35:25;;;;;;;7.00;4.07;;;18.00;55.00;;;;;;4792010;29;20469;-84
2023/02/20 11:38:28;;;;;;;6.47;3.43;;;18.00;55.00;;;;;;4792165;29;20498;-81
2023/02/20 11:41:10;;;;;;;10.90;4.13;;;18.00;55.10;;;;;;4794122;29;20529;-82
2023/02/20 11:43:48;;;;;;;12.50;4.17;;;18.00;55.10;;;;;;4790078;29;20481;-83
2023/02/20 11:46:30;;;;;;;7.50;3.83;;;18.00;54.90;;;;;;4789770;29;20471;-83
2023/02/20 11:49:29;;;;;;;5.27;3.60;;;18.00;54.90;;;;;;4791583;29;20553;-82
2023/02/20 11:52:13;;;;;;;4.93;3.20;;;18.10;55.00;;;;;;4788599;29;20450;-83
2023/02/20 11:55:30;;;;;;;11.03;3.63;;;18.10;55.00;;;;;;4793474;29;20524;-84
2023/02/20 12:06:40;;;;;;;6.03;3.43;;;18.10;54.90;;;;;;4788388;29;20593;-83
2023/02/20 12:09:19;;;;;;;7.83;3.43;;;18.10;54.90;;;;;;4794633;29;20462;-83
2023/02/20 12:12:03;;;;;;;8.20;3.27;;;18.10;55.00;;;;;;4795227;29;20514;-83
2023/02/20 12:14:54;;;;;;;5.63;3.50;;;18.10;55.00;;;;;;4792299;29;20534;-81
2023/02/20 12:17:33;;;;;;;4.97;3.43;;;18.10;55.00;;;;;;4798889;29;20528;-80
2023/02/20 12:21:03;;;;;;;6.43;3.43;;;18.10;55.10;;;;;;4842001;29;20462;-83
2023/02/20 13:00:27;;;;;;;4.73;3.00;;;18.10;55.00;;;;;;4750163;29;20458;-80
2023/02/20 13:03:36;;;;;;;5.10;2.90;;;18.10;55.00;;;;;;4801732;29;20557;-80
2023/02/20 13:22:15;;;;;;;6.13;4.00;;;18.10;55.10;;;;;;4750446;30;20445;-81
2023/02/20 13:42:21;;;;;;;5.17;3.40;;;18.20;55.20;;;;;;4874736;29;20465;-80
2023/02/20 13:46:11;;;;;;;;;;;;;;;;;;;;;
2023/02/20 13:49:46;;;;;;;5.07;3.93;;;18.20;55.40;;;;;;4787065;29;20478;-82
2023/02/20 13:56:04;;;;;;;6.67;3.90;;;18.30;55.20;;;;;;4765175;29;20470;-84
2023/02/20 13:59:04;;;;;;;6.43;3.70;;;18.30;55.30;;;;;;4788436;29;20567;-84
2023/02/20 14:02:00;;;;;;;7.27;3.83;;;18.30;55.20;;;;;;4784634;29;20462;-83
2023/02/20 14:04:44;;;;;;;;;;;;;;;;;;;;;
2023/02/20 14:07:29;;;;;;;7.47;3.20;;;18.30;55.30;;;;;;4789285;29;20458;-82
2023/02/20 14:10:18;;;;;;;6.00;3.60;;;18.30;55.30;;;;;;4789247;29;20463;-84
2023/02/20 14:28:27;;;;;;;6.10;3.43;;;18.30;55.50;;;;;;4799240;29;20446;-84
2023/02/20 15:41:58;;;;;;;6.13;3.00;;;18.40;55.90;;;;;;4841354;29;20473;-83
2023/02/20 15:48:22;;;;;;;5.70;3.30;;;18.50;55.80;;;;;;4814588;29;20445;-82
2023/02/20 15:51:18;;;;;;;7.70;3.00;;;18.40;55.70;;;;;;4823860;29;20473;-82
2023/02/20 15:57:47;;;;;;;3.97;2.50;;;18.50;55.80;;;;;;4771089;29;20505;-82
2023/02/20 16:00:21;;;;;;;7.20;2.90;;;18.40;55.70;;;;;;4816262;29;20512;-81
2023/02/20 16:02:52;;;;;;;5.23;3.10;;;18.40;55.90;;;;;;4818499;29;20547;-82
2023/02/20 16:05:26;;;;;;;4.17;2.90;;;18.40;55.80;;;;;;4829847;29;20453;-80
2023/02/20 16:07:57;;;;;;;5.70;3.40;;;18.40;55.80;;;;;;4825565;29;20482;-85
2023/02/20 16:13:39;;;;;;;5.57;3.20;;;18.40;56.00;;;;;;4825622;29;20489;-84
2023/02/20 16:16:22;;;;;;;3.03;2.47;;;18.40;55.90;;;;;;4817066;29;20481;-84
2023/02/20 16:18:57;;;;;;;4.77;2.77;;;18.50;56.00;;;;;;4810706;29;20474;-82
2023/02/20 16:22:27;;;;;;;5.10;2.90;;;18.50;56.10;;;;;;4822096;29;20449;-83
2023/02/20 16:24:57;;;;;;;8.13;3.50;;;18.40;55.90;;;;;;4795323;29;20474;-81
2023/02/20 16:27:29;;;;;;;5.60;2.80;;;18.50;56.10;;;;;;4816771;29;20556;-83
2023/02/20 16:30:00;;;;;;;3.90;2.90;;;18.50;56.10;;;;;;4815165;29;20473;-81
2023/02/20 16:32:29;;;;;;;3.33;2.50;;;18.50;56.10;;;;;;4810500;29;20630;-81
2023/02/20 16:35:02;;;;;;;8.13;2.87;;;18.50;56.20;;;;;;4816100;29;20471;-84
2023/02/20 16:38:34;;;;;;;7.53;3.07;;;18.50;56.10;;;;;;4809253;29;20987;-86
2023/02/20 17:28:16;;;;;;;5.03;2.60;;;18.40;56.50;;;;;;4856043;29;20467;-80
2023/02/20 17:31:41;;;;;;;;;;;;;;;;;;;;;
2023/02/20 19:09:45;;;;;;;4.50;3.50;;;18.10;57.60;;;;;;5095216;23;20491;-83
2023/02/20 19:12:44;;;;;;;;;;;;;;;;;;;;;
2023/02/20 19:15:38;;;;;;;7.33;3.70;;;18.20;57.60;;;;;;4864987;29;20452;-81
2023/02/20 19:18:07;;;;;;;6.73;3.43;;;18.20;57.30;;;;;;4861336;29;20491;-82
2023/02/20 19:20:36;;;;;;;4.80;3.40;;;18.20;57.40;;;;;;4858405;29;20509;-82
2023/02/20 19:23:10;;;;;;;9.30;3.37;;;18.20;57.40;;;;;;4860651;29;20512;-82
2023/02/20 19:29:21;;;;;;;5.23;3.40;;;18.20;57.30;;;;;;4808011;29;20458;-83
2023/02/20 19:31:50;;;;;;;3.97;3.27;;;18.20;57.40;;;;;;4818507;29;20506;-83
2023/02/20 19:38:22;;;;;;;3.20;2.97;;;18.30;57.30;;;;;;4754447;30;20468;-82
2023/02/20 19:41:54;;;;;;;4.97;3.70;;;18.20;57.40;;;;;;4827562;29;20480;-83
2023/02/20 19:47:52;;;;;;;4.73;3.43;;;18.20;57.40;;;;;;4757355;30;20469;-83
2023/02/20 19:50:22;;;;;;;6.20;3.47;;;18.20;57.60;;;;;;4760798;30;20467;-80
2023/02/20 20:01:57;;;;;;;6.00;4.03;;;18.20;57.60;;;;;;4874069;29;20592;-83
2023/02/20 20:04:31;;;;;;;5.90;4.07;;;18.20;57.60;;;;;;4879990;29;20739;-80
2023/02/20 20:11:04;;;;;;;4.27;3.90;;;18.20;57.40;;;;;;4803125;29;20473;-82
2023/02/20 20:14:01;;;;;;;8.03;3.60;;;18.20;57.70;;;;;;4868653;23;21012;-82
2023/02/20 20:16:36;;;;;;;5.13;3.90;;;18.20;57.60;;;;;;4881767;29;20474;-83
2023/02/20 20:19:52;;;;;;;8.30;3.97;;;18.20;57.60;;;;;;4877486;29;20511;-81
2023/02/20 20:26:19;;;;;;;5.30;4.03;;;18.20;57.70;;;;;;4823876;29;20485;-81
